Aviation Digital Data Service (ADDS)

Output produced by METARs form (0106 UTC 06 December 2019)
found at http://www.aviationweather.gov/metar/data/
 
Forecast for: COR
Text: TAF COR KBAB 052210Z 0522/0701 VRB06KT 9999 BKN040 QNH3002INS
Forecast period: 2200 UTC 05 December 2019 to 1100 UTC 06 December 2019
Forecast type: FROM: standard forecast or significant change
Winds: variable direction winds at 7 MPH (6 knots; 3.1 m/s)
Visibility: 6 or more miles 10+ km)
Ceiling: 4000 feet AGL
Clouds: broken clouds at 4000 feet AGL
Weather: no significant weather forecast for this period
Text: BECMG 0611/0612 VRB06KT 8000 BR BKN045 QNH2997INS TX17/0522Z TN12/0612Z
Forecast period: 1100 UTC 06 December 2019 to 0100 UTC 07 December 2019
Forecast type: BECOMING: Conditions expected to become as follows by 1200 UTC 06 December 2019
Winds: variable direction winds at 7 MPH (6 knots; 3.1 m/s)
Visibility: 5 miles (8 km)
Ceiling: 4500 feet AGL
Clouds: broken clouds at 4500 feet AGL
Weather: BR  (mist)